Time;durP1;ratioP1;P1;durP2;ratioP2;P2;SDS_P1;SDS_P2;PMS_P1;PMS_P2;Temp;Humidity;BMP_temperature;BMP_pressure;BME280_temperature;BME280_humidity;BME280_pressure;Samples;Min_cycle;Max_cycle;Signal;HPM_P1;HPM_P2
2022/04/08 00:01:50;;;;;;;12.23;2.20;;;;;;;6.55;100.00;99686.94;5297333;28;20037;-71
2022/04/08 00:04:21;;;;;;;9.27;1.65;;;;;;;6.56;100.00;99695.56;5301251;28;20115;-71
2022/04/08 00:06:53;;;;;;;9.80;1.98;;;;;;;6.56;100.00;99708.56;5296898;28;20030;-70
2022/04/08 00:09:24;;;;;;;13.07;2.72;;;;;;;6.52;100.00;99699.38;5299969;28;20039;-69
2022/04/08 00:11:55;;;;;;;14.15;2.10;;;;;;;6.56;100.00;99709.38;5300626;28;20505;-71
2022/04/08 00:14:27;;;;;;;14.00;2.72;;;;;;;6.50;100.00;99702.09;5299921;28;20097;-71
2022/04/08 00:16:58;;;;;;;7.78;1.77;;;;;;;6.63;100.00;99721.84;5297227;28;20491;-71
2022/04/08 00:19:29;;;;;;;15.00;2.78;;;;;;;6.65;100.00;99719.94;5300692;28;20060;-71
2022/04/08 00:22:01;;;;;;;12.27;2.53;;;;;;;6.62;100.00;99733.22;5299863;28;20027;-71
2022/04/08 00:24:32;;;;;;;13.45;2.47;;;;;;;6.68;100.00;99746.53;5300319;28;20027;-68
2022/04/08 00:27:03;;;;;;;10.43;2.10;;;;;;;6.69;100.00;99736.94;5298834;28;20096;-70
2022/04/08 00:29:35;;;;;;;15.38;3.17;;;;;;;6.60;100.00;99735.16;5300289;28;20028;-71
2022/04/08 00:32:06;;;;;;;12.75;2.25;;;;;;;6.61;100.00;99742.00;5299352;28;20019;-71
2022/04/08 00:34:38;;;;;;;10.95;2.50;;;;;;;6.55;100.00;99736.38;5298399;28;20023;-69
2022/04/08 00:37:09;;;;;;;14.10;2.78;;;;;;;6.53;100.00;99738.25;5300526;28;20432;-71
2022/04/08 00:39:41;;;;;;;10.65;2.50;;;;;;;6.54;100.00;99739.09;5297739;28;20036;-71
2022/04/08 00:42:15;;;;;;;14.32;3.05;;;;;;;6.52;100.00;99743.63;5300106;28;20032;-70
2022/04/08 00:44:46;;;;;;;11.52;2.35;;;;;;;6.49;100.00;99752.50;5301925;28;20028;-68
2022/04/08 00:47:18;;;;;;;10.77;2.55;;;;;;;6.51;100.00;99763.56;5301146;28;20487;-71
2022/04/08 00:49:53;;;;;;;9.90;2.35;;;;;;;6.59;100.00;99768.13;5301804;28;20011;-71
2022/04/08 00:52:24;;;;;;;14.00;3.08;;;;;;;6.55;100.00;99771.94;5298205;28;20412;-70
2022/04/08 00:54:56;;;;;;;13.25;2.83;;;;;;;6.57;100.00;99781.28;5298791;28;20036;-68
2022/04/08 00:57:28;;;;;;;15.82;2.90;;;;;;;6.58;100.00;99779.50;5298347;28;20027;-68
2022/04/08 01:00:02;;;;;;;12.02;2.60;;;;;;;6.58;100.00;99769.91;5299242;28;20019;-71
2022/04/08 01:02:34;;;;;;;16.60;3.10;;;;;;;6.56;100.00;99776.22;5297963;28;20030;-68
2022/04/08 01:05:06;;;;;;;14.80;3.60;;;;;;;6.56;100.00;99782.25;5298493;28;20059;-69
2022/04/08 01:07:38;;;;;;;13.90;2.38;;;;;;;6.51;100.00;99778.38;5296780;28;20059;-71
2022/04/08 01:10:09;;;;;;;13.13;3.00;;;;;;;6.50;100.00;99793.16;5298977;28;20115;-70
2022/04/08 01:12:40;;;;;;;10.90;2.13;;;;;;;6.49;100.00;99794.13;5297552;28;20194;-69
2022/04/08 01:15:12;;;;;;;16.45;2.80;;;;;;;6.49;100.00;99801.09;5298980;28;20115;-70
2022/04/08 01:17:43;;;;;;;10.40;2.55;;;;;;;6.47;100.00;99814.22;5298361;28;20036;-71
2022/04/08 01:20:15;;;;;;;13.32;2.55;;;;;;;6.46;100.00;99807.38;5298664;28;20044;-71
2022/04/08 01:22:47;;;;;;;13.05;2.88;;;;;;;6.47;100.00;99808.22;5299980;28;20023;-68
2022/04/08 01:25:18;;;;;;;11.15;2.40;;;;;;;6.34;100.00;99805.81;5299439;28;20098;-69
2022/04/08 01:27:49;;;;;;;13.10;2.85;;;;;;;6.42;100.00;99811.19;5298380;28;20028;-70
2022/04/08 01:30:20;;;;;;;14.05;3.00;;;;;;;6.39;100.00;99808.84;5299905;28;20032;-71
2022/04/08 01:32:52;;;;;;;17.45;3.22;;;;;;;6.36;100.00;99818.69;5299214;28;20469;-70
2022/04/08 01:35:23;;;;;;;13.38;3.30;;;;;;;6.34;100.00;99817.03;5298507;28;20459;-69
2022/04/08 01:37:54;;;;;;;9.63;2.45;;;;;;;6.32;100.00;99818.94;5301682;28;20174;-70
2022/04/08 01:40:26;;;;;;;12.80;2.88;;;;;;;6.38;100.00;99824.59;5301254;28;20389;-68
2022/04/08 01:42:57;;;;;;;11.43;2.33;;;;;;;6.37;100.00;99825.56;5299771;28;20039;-71
2022/04/08 01:45:28;;;;;;;10.82;2.30;;;;;;;6.34;100.00;99821.44;5296588;28;20038;-69
2022/04/08 01:48:03;;;;;;;13.82;2.58;;;;;;;6.32;100.00;99828.53;5300672;28;20032;-71
2022/04/08 01:50:34;;;;;;;16.08;3.20;;;;;;;6.28;100.00;99822.75;5299311;28;20031;-70
2022/04/08 01:53:05;;;;;;;15.52;2.90;;;;;;;6.28;100.00;99825.34;5295812;28;20130;-70
2022/04/08 01:55:37;;;;;;;17.48;3.17;;;;;;;6.24;100.00;99825.75;5298813;28;20042;-69
2022/04/08 01:58:08;;;;;;;11.93;2.95;;;;;;;6.23;100.00;99837.09;5297469;28;20369;-71
2022/04/08 02:00:39;;;;;;;17.23;3.38;;;;;;;6.21;100.00;99834.63;5296511;28;20168;-71
2022/04/08 02:03:11;;;;;;;9.50;2.20;;;;;;;6.17;100.00;99841.00;5299283;28;20390;-68
2022/04/08 02:05:42;;;;;;;10.27;2.38;;;;;;;6.15;100.00;99845.53;5299192;28;20062;-69
2022/04/08 02:08:14;;;;;;;11.70;2.72;;;;;;;6.15;100.00;99844.72;5300764;28;20476;-71
2022/04/08 02:10:45;;;;;;;13.95;2.67;;;;;;;6.01;100.00;99835.44;5302369;28;20115;-71
2022/04/08 02:13:16;;;;;;;14.15;2.90;;;;;;;6.05;100.00;99842.84;5300336;28;20471;-70
2022/04/08 02:15:48;;;;;;;11.30;3.05;;;;;;;6.01;100.00;99854.47;5303492;28;20051;-70
2022/04/08 02:18:19;;;;;;;10.93;2.28;;;;;;;5.95;100.00;99846.34;5303445;28;20074;-71
2022/04/08 02:20:51;;;;;;;17.65;2.75;;;;;;;5.96;100.00;99848.81;5298860;28;20073;-67
2022/04/08 02:23:22;;;;;;;9.73;2.22;;;;;;;5.96;100.00;99853.19;5303523;28;20036;-70
2022/04/08 02:25:54;;;;;;;10.55;2.22;;;;;;;5.87;100.00;99849.50;5301924;28;20038;-71
2022/04/08 02:28:25;;;;;;;16.48;3.60;;;;;;;5.88;100.00;99848.59;5304651;28;20214;-71
2022/04/08 02:30:57;;;;;;;10.18;2.53;;;;;;;5.85;100.00;99860.03;5303893;28;20028;-71
2022/04/08 02:33:28;;;;;;;14.70;2.70;;;;;;;5.84;100.00;99863.59;5301393;28;20028;-68
2022/04/08 02:35:59;;;;;;;12.27;2.47;;;;;;;5.79;100.00;99863.13;5301198;28;20027;-71
2022/04/08 02:38:31;;;;;;;12.27;2.30;;;;;;;5.81;100.00;99863.84;5301634;28;20027;-70
2022/04/08 02:41:02;;;;;;;12.25;2.53;;;;;;;5.77;100.00;99859.84;5302348;28;20059;-68
2022/04/08 02:43:33;;;;;;;11.70;2.28;;;;;;;5.75;100.00;99863.50;5302377;28;20032;-70
2022/04/08 02:46:04;;;;;;;12.80;2.50;;;;;;;5.70;100.00;99868.25;5303456;28;20031;-69
2022/04/08 02:48:36;;;;;;;15.10;3.40;;;;;;;5.69;100.00;99869.22;5301757;28;20028;-71
2022/04/08 02:51:07;;;;;;;9.32;2.28;;;;;;;5.68;100.00;99864.94;5304465;28;20016;-71
2022/04/08 02:53:38;;;;;;;9.15;2.30;;;;;;;5.66;100.00;99866.84;5302726;28;20076;-70
2022/04/08 02:56:10;;;;;;;8.40;2.28;;;;;;;5.65;100.00;99870.41;5301553;28;20054;-71
2022/04/08 02:58:41;;;;;;;13.00;2.33;;;;;;;5.61;100.00;99875.03;5293916;28;20089;-71
2022/04/08 03:01:12;;;;;;;11.07;2.60;;;;;;;5.56;100.00;99870.16;5297067;28;20377;-68
2022/04/08 03:03:44;;;;;;;11.23;2.15;;;;;;;5.55;100.00;99871.13;5300728;28;20073;-71
2022/04/08 03:06:15;;;;;;;12.75;2.10;;;;;;;5.52;100.00;99878.34;5303946;27;20607;-69
2022/04/08 03:08:46;;;;;;;15.63;2.80;;;;;;;5.47;100.00;99881.31;5298983;28;20089;-68
2022/04/08 03:11:18;;;;;;;8.18;1.88;;;;;;;5.45;100.00;99877.16;5300489;28;20316;-69
2022/04/08 03:13:49;;;;;;;10.18;2.38;;;;;;;5.41;100.00;99867.97;5303525;28;20016;-71
2022/04/08 03:16:21;;;;;;;12.43;2.10;;;;;;;5.37;100.00;99877.75;5299886;28;20118;-70
2022/04/08 03:18:52;;;;;;;9.45;2.65;;;;;;;5.35;100.00;99877.06;5301757;28;20031;-70
2022/04/08 03:21:24;;;;;;;8.10;2.28;;;;;;;5.32;100.00;99875.53;5299016;27;20031;-71
2022/04/08 03:23:55;;;;;;;9.02;2.53;;;;;;;5.29;100.00;99877.56;5298563;28;20024;-71
2022/04/08 03:26:26;;;;;;;9.40;1.98;;;;;;;5.23;100.00;99888.44;5299799;28;20028;-71
2022/04/08 03:28:58;;;;;;;13.35;2.38;;;;;;;5.20;100.00;99886.06;5303733;28;20047;-71
2022/04/08 03:31:29;;;;;;;10.68;2.38;;;;;;;5.15;100.00;99891.59;5303555;28;20016;-70
2022/04/08 03:34:02;;;;;;;9.93;2.20;;;;;;;5.05;100.00;99882.88;5300680;28;20028;-71
2022/04/08 03:36:33;;;;;;;12.23;3.00;;;;;;;5.08;100.00;99900.81;5300368;28;20564;-71
2022/04/08 03:39:04;;;;;;;11.13;2.30;;;;;;;5.05;100.00;99898.47;5300491;28;20070;-71
2022/04/08 03:41:36;;;;;;;10.02;2.10;;;;;;;4.98;100.00;99903.28;5301863;28;20031;-71
2022/04/08 03:44:07;;;;;;;8.95;2.15;;;;;;;4.99;100.00;99904.09;5298062;28;20525;-71
2022/04/08 03:46:38;;;;;;;6.82;2.03;;;;;;;4.95;100.00;99895.72;5300693;28;20076;-68
2022/04/08 03:49:14;;;;;;;12.35;2.63;;;;;;;4.96;100.00;99893.97;5301295;28;20361;-71
2022/04/08 03:51:46;;;;;;;8.60;2.10;;;;;;;4.91;100.00;99904.69;5302801;28;20016;-69
2022/04/08 03:54:18;;;;;;;8.73;2.28;;;;;;;4.90;100.00;99900.47;5303113;28;20929;-68
2022/04/08 03:56:49;;;;;;;16.33;2.90;;;;;;;4.87;100.00;99905.88;5300699;28;20020;-71
2022/04/08 03:59:21;;;;;;;8.57;2.38;;;;;;;4.83;100.00;99907.88;5299989;28;20027;-70
2022/04/08 04:01:53;;;;;;;8.47;2.47;;;;;;;4.83;100.00;99914.84;5298290;28;20019;-70
2022/04/08 04:04:26;;;;;;;8.98;2.10;;;;;;;4.80;100.00;99904.69;5299128;28;20051;-70
2022/04/08 04:06:57;;;;;;;6.82;2.15;;;;;;;4.78;100.00;99910.00;5299669;28;20059;-71
2022/04/08 04:09:28;;;;;;;7.80;2.67;;;;;;;4.75;100.00;99906.81;5298787;28;20123;-71
2022/04/08 04:11:59;;;;;;;8.80;3.03;;;;;;;4.71;100.00;99910.59;5302711;28;20042;-71
2022/04/08 04:14:31;;;;;;;10.35;2.88;;;;;;;4.70;100.00;99903.72;5298074;28;20034;-69
2022/04/08 04:17:03;;;;;;;13.00;3.10;;;;;;;4.65;100.00;99909.25;5299573;28;20696;-67
2022/04/08 04:19:34;;;;;;;9.15;3.00;;;;;;;4.61;100.00;99900.88;5301690;28;20611;-71
2022/04/08 04:22:05;;;;;;;9.07;3.08;;;;;;;4.60;100.00;99903.59;5299332;28;20115;-70
2022/04/08 04:24:37;;;;;;;8.57;2.60;;;;;;;4.59;100.00;99902.78;5297228;28;20039;-71
2022/04/08 04:27:08;;;;;;;7.47;2.63;;;;;;;4.58;100.00;99893.34;5299456;28;20020;-71
2022/04/08 04:29:39;;;;;;;8.98;2.70;;;;;;;4.54;100.00;99897.09;5298765;28;20019;-68
2022/04/08 04:32:11;;;;;;;9.52;3.25;;;;;;;4.51;100.00;99897.34;5295775;28;20122;-71
2022/04/08 04:34:42;;;;;;;9.93;3.63;;;;;;;4.50;100.00;99900.03;5301197;28;20715;-71
2022/04/08 04:37:13;;;;;;;8.20;3.30;;;;;;;4.48;100.00;99900.16;5298965;28;20031;-68
2022/04/08 04:39:44;;;;;;;8.80;2.83;;;;;;;4.48;100.00;99904.53;5300393;28;20409;-71
2022/04/08 04:42:16;;;;;;;13.82;3.80;;;;;;;4.44;100.00;99911.69;5298820;28;20049;-69
2022/04/08 04:44:47;;;;;;;10.05;3.70;;;;;;;4.44;100.00;99903.91;5301145;28;20043;-70
2022/04/08 04:47:18;;;;;;;7.43;3.20;;;;;;;4.44;100.00;99903.91;5301067;28;20031;-71
2022/04/08 04:49:50;;;;;;;8.02;3.25;;;;;;;4.39;100.00;99903.41;5296626;28;20020;-70
2022/04/08 04:52:21;;;;;;;10.60;3.83;;;;;;;4.43;100.00;99904.84;5299503;28;20038;-71
2022/04/08 04:54:52;;;;;;;8.90;4.40;;;;;;;4.42;100.00;99903.19;5297731;28;20019;-71
2022/04/08 04:57:23;;;;;;;10.18;4.32;;;;;;;4.40;100.00;99905.09;5302314;28;20028;-67
2022/04/08 04:59:55;;;;;;;15.25;4.90;;;;;;;4.39;100.00;99909.47;5301730;28;20921;-70
2022/04/08 05:02:26;;;;;;;11.38;4.82;;;;;;;4.40;100.00;99907.69;5302855;28;20072;-67
2022/04/08 05:04:57;;;;;;;7.35;5.15;;;;;;;4.38;100.00;99901.78;5300782;28;20031;-69
2022/04/08 05:07:29;;;;;;;11.18;5.47;;;;;;;4.40;100.00;99902.50;5295254;28;20386;-70
2022/04/08 05:10:01;;;;;;;13.00;6.25;;;;;;;4.38;100.00;99900.00;5303051;28;20473;-70
2022/04/08 05:12:35;;;;;;;15.63;6.17;;;;;;;4.42;100.00;99892.00;5297596;28;20504;-71
2022/04/08 05:15:09;;;;;;;9.93;4.95;;;;;;;4.38;100.00;99899.19;5297392;28;20028;-68
2022/04/08 05:17:42;;;;;;;11.00;5.55;;;;;;;4.43;100.00;99897.06;5299139;28;20019;-67
2022/04/08 05:20:13;;;;;;;11.90;5.78;;;;;;;4.46;100.00;99896.84;5299737;28;20044;-70
2022/04/08 05:22:45;;;;;;;13.48;5.60;;;;;;;4.46;100.00;99898.59;5298324;28;20024;-70
2022/04/08 05:25:16;;;;;;;15.10;5.53;;;;;;;4.46;100.00;99902.03;5301855;28;20089;-70
2022/04/08 05:27:47;;;;;;;10.88;5.68;;;;;;;4.50;100.00;99898.25;5300442;28;20308;-70
2022/04/08 05:30:19;;;;;;;13.55;6.22;;;;;;;4.50;100.00;99902.63;5298068;28;20030;-71
2022/04/08 05:32:50;;;;;;;12.70;6.63;;;;;;;4.46;100.00;99880.47;5298452;28;20030;-71
2022/04/08 05:35:21;;;;;;;13.07;7.40;;;;;;;4.51;100.00;99893.91;5299773;28;20063;-71
2022/04/08 05:37:53;;;;;;;13.27;7.63;;;;;;;4.56;100.00;99897.00;5297143;28;20802;-71
2022/04/08 05:40:24;;;;;;;11.35;7.78;;;;;;;4.56;100.00;99886.63;5298915;28;20067;-67
2022/04/08 05:42:55;;;;;;;13.38;8.73;;;;;;;4.59;100.00;99882.03;5300993;28;20430;-70
2022/04/08 05:45:27;;;;;;;11.73;7.07;;;;;;;4.60;100.00;99886.25;5303551;28;20062;-68
2022/04/08 05:48:05;;;;;;;11.07;7.63;;;;;;;4.71;100.00;99890.66;5304772;28;20027;-71
2022/04/08 05:50:36;;;;;;;11.80;7.53;;;;;;;4.67;100.00;99880.63;5303247;28;20030;-68
2022/04/08 05:53:08;;;;;;;10.98;7.82;;;;;;;4.68;100.00;99884.88;5304053;28;20028;-71
2022/04/08 05:55:39;;;;;;;12.73;8.05;;;;;;;4.72;100.00;99873.31;5301505;28;20561;-71
2022/04/08 05:58:10;;;;;;;13.88;8.43;;;;;;;4.73;100.00;99870.59;5301661;28;20150;-68
2022/04/08 06:00:41;;;;;;;9.90;8.07;;;;;;;4.73;100.00;99872.34;5304229;28;20050;-69
2022/04/08 06:03:13;;;;;;;14.52;8.32;;;;;;;4.74;100.00;99868.84;5299885;28;20028;-68
2022/04/08 06:05:44;;;;;;;12.50;8.13;;;;;;;4.76;100.00;99867.75;5300284;28;20401;-71
2022/04/08 06:08:15;;;;;;;13.25;8.07;;;;;;;4.78;100.00;99865.06;5301363;28;20485;-71
2022/04/08 06:10:46;;;;;;;12.10;7.72;;;;;;;4.82;100.00;99871.69;5301402;28;20374;-71
2022/04/08 06:13:24;;;;;;;12.30;8.27;;;;;;;4.86;100.00;99873.09;5296820;28;20784;-71
2022/04/08 06:15:55;;;;;;;10.95;7.32;;;;;;;4.87;100.00;99880.75;5301156;28;20024;-70
2022/04/08 06:18:27;;;;;;;12.10;7.20;;;;;;;4.92;100.00;99871.78;5300614;27;20209;-70
2022/04/08 06:21:00;;;;;;;13.38;7.35;;;;;;;4.98;100.00;99871.31;5292967;28;20578;-71
2022/04/08 06:23:31;;;;;;;11.38;7.32;;;;;;;5.01;100.00;99874.50;5300484;28;20036;-70
2022/04/08 06:26:03;;;;;;;10.23;7.20;;;;;;;4.97;100.00;99867.91;5301011;28;20030;-71
2022/04/08 06:28:34;;;;;;;15.63;7.32;;;;;;;5.10;100.00;99880.75;5299837;28;20913;-71
2022/04/08 06:31:05;;;;;;;11.00;6.40;;;;;;;5.15;100.00;99875.19;5299505;28;20107;-71
2022/04/08 06:33:37;;;;;;;13.10;6.82;;;;;;;5.21;100.00;99882.53;5297516;28;20304;-70
2022/04/08 06:36:08;;;;;;;11.82;6.15;;;;;;;5.26;100.00;99870.00;5301764;28;20024;-71
2022/04/08 06:38:40;;;;;;;17.10;6.78;;;;;;;5.37;100.00;99870.78;5300443;28;20118;-69
2022/04/08 06:41:12;;;;;;;14.65;6.57;;;;;;;5.49;100.00;99868.19;5301193;28;20385;-70
2022/04/08 06:43:43;;;;;;;9.18;6.47;;;;;;;5.64;100.00;99863.53;5299819;28;20497;-71
2022/04/08 06:46:14;;;;;;;11.73;6.93;;;;;;;5.74;100.00;99856.66;5296843;28;20516;-70
2022/04/08 06:48:45;;;;;;;8.80;6.05;;;;;;;5.86;100.00;99853.88;5299278;28;20032;-70
2022/04/08 06:51:17;;;;;;;11.50;6.30;;;;;;;5.96;100.00;99855.78;5300705;28;20019;-68
2022/04/08 06:53:48;;;;;;;7.78;5.80;;;;;;;6.05;100.00;99857.63;5300376;28;20059;-71
2022/04/08 06:56:19;;;;;;;11.00;5.93;;;;;;;6.12;100.00;99852.75;5304123;28;20032;-67
2022/04/08 06:58:51;;;;;;;10.88;5.78;;;;;;;6.16;100.00;99854.97;5279638;28;20025;-69
2022/04/08 07:01:25;;;;;;;9.15;5.78;;;;;;;6.21;100.00;99857.19;5293542;28;20096;-71
2022/04/08 07:03:57;;;;;;;9.10;4.90;;;;;;;6.25;100.00;99853.38;5295659;28;20044;-67
2022/04/08 07:06:29;;;;;;;8.98;5.60;;;;;;;6.31;100.00;99853.72;5297829;28;20378;-70
2022/04/08 07:09:00;;;;;;;7.10;4.70;;;;;;;6.37;100.00;99846.38;5300406;28;20031;-70
2022/04/08 07:11:31;;;;;;;8.38;4.82;;;;;;;6.41;100.00;99851.19;5300260;28;20032;-69
2022/04/08 07:14:04;;;;;;;8.55;4.63;;;;;;;6.51;100.00;99852.03;5298534;28;20024;-71
2022/04/08 07:16:35;;;;;;;6.82;4.43;;;;;;;6.52;100.00;99850.28;5295649;28;20039;-67
2022/04/08 07:19:10;;;;;;;13.70;4.88;;;;;;;6.59;100.00;99851.41;5290660;28;20290;-70
2022/04/08 07:21:41;;;;;;;9.77;4.22;;;;;;;6.68;100.00;99845.44;5295204;28;20049;-69
2022/04/08 07:24:12;;;;;;;8.07;5.05;;;;;;;6.73;100.00;99842.44;5299628;28;20113;-71
2022/04/08 07:26:44;;;;;;;8.82;4.53;;;;;;;6.73;100.00;99838.06;5300138;28;20034;-70
2022/04/08 07:29:15;;;;;;;8.98;4.05;;;;;;;6.74;100.00;99838.88;5299788;28;20024;-67
2022/04/08 07:31:46;;;;;;;8.73;4.35;;;;;;;6.80;100.00;99833.97;5297891;28;20032;-70
2022/04/08 07:34:18;;;;;;;13.13;4.65;;;;;;;6.86;100.00;99835.25;5299523;28;20046;-70
2022/04/08 07:36:49;;;;;;;8.57;3.60;;;;;;;6.85;100.00;99830.97;5294687;28;20489;-70
2022/04/08 07:39:20;;;;;;;8.15;4.35;;;;;;;6.87;100.00;99836.91;5282524;28;21809;-68
2022/04/08 07:41:51;;;;;;;8.13;4.63;;;;;;;6.97;100.00;99834.31;5291269;28;20020;-71
2022/04/08 07:44:23;;;;;;;11.40;4.90;;;;;;;7.09;100.00;99835.06;5282492;28;20081;-70
2022/04/08 07:46:54;;;;;;;12.07;4.47;;;;;;;7.13;100.00;99836.44;5293039;28;20447;-71
2022/04/08 07:49:25;;;;;;;17.38;5.80;;;;;;;7.23;100.00;99840.69;5295215;28;20059;-67
2022/04/08 07:51:56;;;;;;;7.95;4.55;;;;;;;7.33;100.00;99832.91;5295419;28;20052;-68
2022/04/08 07:54:28;;;;;;;11.93;4.72;;;;;;;7.36;100.00;99830.06;5297983;28;20032;-70
2022/04/08 07:56:59;;;;;;;8.23;4.07;;;;;;;7.34;100.00;99821.53;5299742;28;20054;-70
2022/04/08 07:59:30;;;;;;;8.63;3.85;;;;;;;7.39;100.00;99831.56;5296614;28;20027;-71
2022/04/08 08:02:02;;;;;;;10.00;3.88;;;;;;;7.40;100.00;99830.59;5298634;28;20024;-71
2022/04/08 08:04:33;;;;;;;5.97;3.63;;;;;;;7.38;100.00;99822.09;5297766;28;20093;-68
2022/04/08 08:07:05;;;;;;;7.68;4.07;;;;;;;7.44;100.00;99821.56;5298773;28;20497;-69
2022/04/08 08:09:36;;;;;;;8.40;3.90;;;;;;;7.54;100.00;99825.00;5300354;28;20093;-71
2022/04/08 08:12:08;;;;;;;10.93;4.43;;;;;;;7.57;100.00;99822.94;5299345;28;20072;-71
2022/04/08 08:14:39;;;;;;;6.78;3.55;;;;;;;7.58;100.00;99818.56;5297380;28;20024;-71
2022/04/08 08:17:10;;;;;;;8.18;3.97;;;;;;;7.62;100.00;99817.31;5297788;28;20074;-71
2022/04/08 08:19:41;;;;;;;8.30;3.80;;;;;;;7.70;100.00;99827.06;5297167;28;20093;-70
2022/04/08 08:22:13;;;;;;;6.70;3.80;;;;;;;7.75;100.00;99820.47;5293437;28;20034;-70
2022/04/08 08:24:44;;;;;;;7.93;4.03;;;;;;;7.83;100.00;99821.56;5300466;28;20028;-68
2022/04/08 08:27:15;;;;;;;7.60;4.00;;;;;;;7.82;100.00;99819.94;5292730;28;20051;-71
2022/04/08 08:29:47;;;;;;;8.18;4.40;;;;;;;7.89;100.00;99814.03;5296471;28;20784;-69
2022/04/08 08:32:18;;;;;;;8.60;4.03;;;;;;;7.94;100.00;99811.81;5295359;28;20314;-67
2022/04/08 08:34:49;;;;;;;8.45;3.80;;;;;;;8.00;100.00;99808.69;5296347;28;20423;-71
2022/04/08 08:37:21;;;;;;;8.95;3.53;;;;;;;8.04;100.00;99797.00;5297057;28;20024;-70
2022/04/08 08:39:55;;;;;;;8.68;3.97;;;;;;;8.07;100.00;99792.44;5292658;28;20409;-71
2022/04/08 08:42:29;;;;;;;7.65;3.45;;;;;;;8.08;100.00;99781.88;5293530;28;20038;-70
2022/04/08 08:45:00;;;;;;;6.78;3.17;;;;;;;8.17;100.00;99785.44;5293617;28;20031;-71
2022/04/08 08:47:31;;;;;;;10.52;3.90;;;;;;;8.27;100.00;99776.63;5298546;28;20035;-71
2022/04/08 08:50:05;;;;;;;6.97;3.08;;;;;;;8.27;100.00;99774.03;5296264;28;20024;-70
2022/04/08 08:52:37;;;;;;;7.78;3.05;;;;;;;8.27;100.00;99770.59;5298898;28;20289;-71
2022/04/08 08:55:08;;;;;;;9.13;2.63;;;;;;;8.42;100.00;99776.22;5298538;28;20542;-71
2022/04/08 08:57:41;;;;;;;7.38;2.60;;;;;;;8.46;100.00;99762.72;5296450;28;20028;-71
2022/04/08 09:00:16;;;;;;;7.53;3.10;;;;;;;8.54;100.00;99759.41;5297095;28;20024;-71
2022/04/08 09:02:48;;;;;;;6.05;2.33;;;;;;;8.66;100.00;99767.88;5296650;28;20039;-71
2022/04/08 09:05:25;;;;;;;6.47;2.33;;;;;;;8.74;100.00;99760.13;5297836;28;20047;-68
2022/04/08 09:08:01;;;;;;;9.90;3.13;;;;;;;8.72;100.00;99764.69;5293779;28;20488;-71
2022/04/08 09:10:35;;;;;;;8.57;3.13;;;;;;;8.74;100.00;99752.28;5295827;28;20020;-70
2022/04/08 09:13:09;;;;;;;5.30;2.92;;;;;;;8.80;100.00;99759.56;5292445;28;20023;-71
2022/04/08 09:15:51;;;;;;;6.70;2.90;;;;;;;9.00;100.00;99758.47;5298840;28;20106;-70
2022/04/08 09:18:23;;;;;;;8.10;3.00;;;;;;;8.94;100.00;99756.47;5297580;28;20028;-71
2022/04/08 09:20:55;;;;;;;6.45;2.47;;;;;;;8.94;100.00;99764.31;5299378;28;20054;-70
2022/04/08 09:23:28;;;;;;;10.40;2.80;;;;;;;9.08;100.00;99768.19;5300598;28;20035;-69
2022/04/08 09:26:04;;;;;;;8.70;2.33;;;;;;;9.07;100.00;99760.50;5301339;28;20032;-70
2022/04/08 09:28:37;;;;;;;4.45;2.20;;;;;;;9.08;100.00;99762.97;5303833;28;20489;-70
2022/04/08 09:31:19;;;;;;;7.10;2.45;;;;;;;9.26;100.00;99765.63;5302771;28;20040;-70
2022/04/08 09:33:55;;;;;;;7.95;2.58;;;;;;;9.14;100.00;99762.41;5299791;28;20024;-68
2022/04/08 09:36:30;;;;;;;7.55;2.83;;;;;;;9.21;100.00;99749.56;5300571;28;20085;-70
2022/04/08 09:39:07;;;;;;;1845.25;173.93;;;;;;;9.33;100.00;99758.00;5303613;28;20480;-68
2022/04/08 09:41:40;;;;;;;110.38;9.73;;;;;;;9.24;100.00;99764.94;5301338;28;20034;-69
2022/04/08 09:44:13;;;;;;;11.82;2.63;;;;;;;9.21;100.00;99747.78;5301991;28;20027;-70
2022/04/08 09:46:44;;;;;;;9.60;2.42;;;;;;;9.23;99.05;99758.06;5299684;28;20027;-69
2022/04/08 09:49:15;;;;;;;6.50;2.35;;;;;;;9.21;98.67;99752.19;5299785;28;20378;-68
2022/04/08 09:51:52;;;;;;;5.28;1.70;;;;;;;9.26;100.00;99755.97;5299028;28;20447;-67
2022/04/08 09:54:27;;;;;;;8.52;2.10;;;;;;;9.14;99.65;99751.13;5299272;28;20378;-71
2022/04/08 09:56:59;;;;;;;8.80;1.80;;;;;;;9.22;98.84;99748.59;5297072;28;20073;-70
2022/04/08 09:59:35;;;;;;;7.32;2.05;;;;;;;9.33;96.30;99760.63;5300585;28;20035;-70
2022/04/08 10:02:07;;;;;;;6.35;2.08;;;;;;;9.29;98.26;99754.88;5298313;28;20039;-71
2022/04/08 10:04:39;;;;;;;5.93;1.88;;;;;;;9.32;98.12;99753.72;5298941;28;20032;-70
2022/04/08 10:07:11;;;;;;;7.65;1.55;;;;;;;9.40;98.39;99757.25;5300014;28;20024;-68
2022/04/08 10:10:15;;;;;;;8.48;2.33;;;;;;;9.47;98.91;99741.78;5298420;28;20389;-70
2022/04/08 10:13:21;;;;;;;10.57;2.38;;;;;;;9.71;100.00;99743.81;5301419;28;20085;-71
2022/04/08 10:16:00;;;;;;;8.57;2.72;;;;;;;9.56;97.20;99750.53;5298924;28;20024;-70
2022/04/08 10:18:38;;;;;;;10.80;2.67;;;;;;;9.67;97.77;99747.69;5299200;28;20412;-71
2022/04/08 10:21:10;;;;;;;8.35;2.40;;;;;;;9.65;99.32;99739.97;5303430;28;20036;-70
2022/04/08 10:23:55;;;;;;;11.43;2.43;;;;;;;9.97;100.00;99744.66;5295225;28;20384;-70
2022/04/08 10:26:27;;;;;;;8.18;1.90;;;;;;;9.78;96.66;99738.78;5303251;28;20063;-70
2022/04/08 10:29:10;;;;;;;57.97;7.30;;;;;;;9.93;99.36;99742.50;5300066;28;20107;-71
2022/04/08 10:31:41;;;;;;;11.13;3.33;;;;;;;9.82;97.57;99738.34;5299434;28;20093;-68
2022/04/08 10:34:12;;;;;;;6.88;2.85;;;;;;;9.87;98.53;99733.44;5298337;28;20110;-71
2022/04/08 10:36:44;;;;;;;10.18;2.95;;;;;;;9.83;98.42;99732.13;5299882;28;20190;-70
2022/04/08 10:39:19;;;;;;;7.63;3.38;;;;;;;9.66;96.18;99722.50;5298099;28;20027;-70
2022/04/08 10:42:00;;;;;;;8.57;2.65;;;;;;;9.75;99.78;99724.22;5302750;28;20035;-71
2022/04/08 10:44:39;;;;;;;9.30;2.65;;;;;;;9.75;97.60;99724.22;5294896;28;20024;-70
2022/04/08 10:47:14;;;;;;;6.57;2.60;;;;;;;9.67;99.13;99727.59;5300640;28;20097;-70
2022/04/08 10:49:53;;;;;;;7.30;2.45;;;;;;;9.66;97.82;99730.34;5296294;28;20053;-70
2022/04/08 10:52:27;;;;;;;5.93;2.50;;;;;;;9.59;97.21;99731.94;5289651;28;20081;-71
2022/04/08 10:55:12;;;;;;;7.13;2.45;;;;;;;9.71;97.16;99722.88;5293162;28;20152;-70
2022/04/08 10:57:45;;;;;;;7.38;2.30;;;;;;;9.55;98.61;99722.75;5298681;28;20129;-69
2022/04/08 11:00:19;;;;;;;8.45;2.40;;;;;;;9.45;96.15;99733.28;5301414;28;20781;-68
2022/04/08 11:02:54;;;;;;;6.40;1.92;;;;;;;9.53;96.86;99733.34;5296316;28;20020;-68
2022/04/08 11:05:25;;;;;;;6.63;2.25;;;;;;;9.60;96.67;99733.56;5301438;28;20028;-70
2022/04/08 11:07:58;;;;;;;7.40;2.33;;;;;;;9.69;96.38;99719.56;5298664;28;20027;-70
2022/04/08 11:10:31;;;;;;;4.80;2.03;;;;;;;9.61;95.59;99711.69;5295857;28;20429;-70
2022/04/08 11:13:03;;;;;;;8.95;2.28;;;;;;;9.66;94.59;99710.25;5298251;28;20112;-68
2022/04/08 11:15:34;;;;;;;8.52;2.30;;;;;;;9.60;93.62;99691.75;5299886;28;20105;-67
2022/04/08 11:18:08;;;;;;;8.27;2.00;;;;;;;9.70;98.06;99700.31;5295017;28;21361;-70
2022/04/08 11:20:39;;;;;;;7.95;2.40;;;;;;;9.78;97.98;99705.59;5297676;28;20280;-71
2022/04/08 11:23:10;;;;;;;7.65;2.33;;;;;;;9.79;98.20;99707.25;5300623;28;20089;-70
2022/04/08 11:25:41;;;;;;;10.05;2.90;;;;;;;9.74;95.93;99691.19;5297658;28;20026;-70
2022/04/08 11:28:14;;;;;;;7.07;2.20;;;;;;;9.85;95.54;99692.72;5299876;28;20031;-69
2022/04/08 11:30:46;;;;;;;7.63;2.40;;;;;;;9.80;94.88;99690.56;5297716;28;20039;-68
2022/04/08 11:33:19;;;;;;;7.85;2.60;;;;;;;9.84;96.47;99689.28;5297979;28;20015;-70
2022/04/08 11:36:03;;;;;;;5.38;2.17;;;;;;;10.01;96.29;99673.69;5297481;28;20511;-70
2022/04/08 11:38:34;;;;;;;8.70;2.33;;;;;;;9.94;93.56;99674.31;5294355;28;20081;-71
2022/04/08 11:41:05;;;;;;;4.85;1.73;;;;;;;10.00;92.86;99654.56;5297016;28;20551;-70
2022/04/08 11:43:37;;;;;;;9.13;2.47;;;;;;;10.16;94.45;99653.81;5298881;28;20571;-70
2022/04/08 11:46:14;;;;;;;7.10;1.95;;;;;;;10.27;93.42;99639.69;5295535;28;20030;-70
2022/04/08 11:48:45;;;;;;;10.00;2.30;;;;;;;10.42;95.31;99649.38;5294351;28;20040;-70
2022/04/08 11:51:21;;;;;;;11.60;2.65;;;;;;;10.42;92.14;99649.38;5296733;28;20030;-70
2022/04/08 11:53:53;;;;;;;8.13;2.60;;;;;;;10.31;89.51;99659.31;5294680;28;20515;-71